createdAt,value
2022-11-13T00:01:52.947Z,92.70
2022-11-13T00:04:40.409Z,92.20
2022-11-13T00:07:29.525Z,92.80
2022-11-13T00:10:17.606Z,92.70
2022-11-13T00:13:05.502Z,92.90
2022-11-13T00:15:58.915Z,92.40
2022-11-13T00:18:46.446Z,92.50
2022-11-13T00:21:34.196Z,92.90
2022-11-13T00:24:23.012Z,93.00
2022-11-13T00:27:27.797Z,92.10
2022-11-13T00:30:19.238Z,91.50
2022-11-13T00:33:07.830Z,91.10
2022-11-13T00:35:55.451Z,90.70
2022-11-13T00:38:42.600Z,90.60
2022-11-13T00:41:33.096Z,91.00
2022-11-13T00:44:37.935Z,90.90
2022-11-13T00:47:25.646Z,90.20
2022-11-13T00:50:12.736Z,90.10
2022-11-13T00:53:18.291Z,90.40
2022-11-13T00:56:23.601Z,90.30
2022-11-13T00:59:12.712Z,90.80
2022-11-13T01:02:17.307Z,90.40
2022-11-13T01:05:06.169Z,90.40
2022-11-13T01:07:53.885Z,90.10
2022-11-13T01:10:44.750Z,90.30
2022-11-13T01:13:33.061Z,89.70
2022-11-13T01:16:26.914Z,88.10
2022-11-13T01:19:14.456Z,87.90
2022-11-13T01:22:01.775Z,87.20
2022-11-13T01:24:49.182Z,87.10
2022-11-13T01:27:38.693Z,87.30
2022-11-13T01:30:26.529Z,87.90
2022-11-13T01:33:17.661Z,87.90
2022-11-13T01:36:07.246Z,88.50
2022-11-13T01:38:55.368Z,88.50
2022-11-13T01:41:43.025Z,89.10
2022-11-13T01:44:49.318Z,88.70
2022-11-13T01:47:37.374Z,86.70
2022-11-13T01:50:26.345Z,87.50
2022-11-13T01:53:14.053Z,88.30
2022-11-13T01:56:01.362Z,88.20
2022-11-13T01:58:54.605Z,88.50
2022-11-13T02:01:42.716Z,88.10
2022-11-13T02:04:31.392Z,88.10
2022-11-13T02:07:23.154Z,88.60
2022-11-13T02:10:11.092Z,88.70
2022-11-13T02:12:58.612Z,88.30
2022-11-13T02:15:47.170Z,89.80
2022-11-13T02:18:36.415Z,89.40
2022-11-13T02:21:39.152Z,89.60
2022-11-13T02:24:32.716Z,90.20
2022-11-13T02:27:27.283Z,90.30
2022-11-13T02:30:20.960Z,90.30
2022-11-13T02:33:24.763Z,90.10
2022-11-13T02:36:13.380Z,90.00
2022-11-13T02:39:05.216Z,89.90
2022-11-13T02:41:53.903Z,90.00
2022-11-13T02:44:41.533Z,90.80
2022-11-13T02:47:29.672Z,90.60
2022-11-13T02:50:17.672Z,91.20
2022-11-13T02:53:22.772Z,91.10
2022-11-13T02:56:10.672Z,91.00
2022-11-13T02:58:59.770Z,91.40
2022-11-13T03:01:48.228Z,91.50
2022-11-13T03:05:05.328Z,91.80
2022-11-13T03:07:43.582Z,91.50
2022-11-13T03:10:31.134Z,91.70
2022-11-13T03:13:18.378Z,91.60
2022-11-13T03:16:12.486Z,91.80
2022-11-13T03:18:59.799Z,91.60
2022-11-13T03:21:47.021Z,91.60
2022-11-13T03:24:34.218Z,91.80
2022-11-13T03:27:21.945Z,91.30
2022-11-13T03:30:10.498Z,91.00
2022-11-13T03:32:59.906Z,91.20
2022-11-13T03:36:04.650Z,92.10
2022-11-13T03:38:52.735Z,92.40
2022-11-13T03:41:40.299Z,92.30
2022-11-13T03:44:27.431Z,92.30
2022-11-13T03:47:14.796Z,92.00
2022-11-13T03:50:05.572Z,91.80
2022-11-13T03:52:53.730Z,91.90
2022-11-13T03:55:41.522Z,92.10
2022-11-13T03:58:29.255Z,92.10
2022-11-13T04:01:16.898Z,91.80
2022-11-13T04:04:21.412Z,91.80
2022-11-13T04:07:10.523Z,92.40
2022-11-13T04:09:58.033Z,92.80
2022-11-13T04:12:45.319Z,93.30
2022-11-13T04:15:32.476Z,93.50
2022-11-13T04:18:37.005Z,93.60
2022-11-13T04:21:41.683Z,93.80
2022-11-13T04:24:30.687Z,93.90
2022-11-13T04:27:18.380Z,94.40
2022-11-13T04:30:08.449Z,94.90
2022-11-13T04:32:56.290Z,95.40
2022-11-13T04:35:45.891Z,95.80
2022-11-13T04:38:33.379Z,96.20
2022-11-13T04:41:39.639Z,96.20
2022-11-13T04:44:27.221Z,96.40
2022-11-13T04:47:14.882Z,96.00
2022-11-13T04:50:02.383Z,96.40
2022-11-13T04:52:49.630Z,96.70
2022-11-13T04:55:37.072Z,96.50
2022-11-13T04:58:25.830Z,96.80
2022-11-13T05:01:13.198Z,97.60
2022-11-13T05:04:00.750Z,97.90
2022-11-13T05:06:48.166Z,97.80
2022-11-13T05:09:52.556Z,97.90
2022-11-13T05:12:39.837Z,97.80
2022-11-13T05:15:28.660Z,97.80
2022-11-13T05:18:16.278Z,98.20
2022-11-13T05:21:03.809Z,98.50
2022-11-13T05:23:51.008Z,99.50
2022-11-13T05:26:39.618Z,99.60
2022-11-13T05:29:26.891Z,99.00
2022-11-13T05:32:15.618Z,98.60
2022-11-13T05:35:20.318Z,98.30
2022-11-13T05:38:07.838Z,97.80
2022-11-13T05:40:55.417Z,97.80
2022-11-13T05:43:43.081Z,97.90
2022-11-13T05:46:31.348Z,97.70
2022-11-13T05:49:20.259Z,97.90
2022-11-13T05:52:07.603Z,98.20
2022-11-13T05:54:54.977Z,98.50
2022-11-13T05:57:42.298Z,98.60
2022-11-13T06:00:29.640Z,98.70
2022-11-13T06:03:17.101Z,98.70
2022-11-13T06:06:06.288Z,98.70
2022-11-13T06:08:55.027Z,98.90
2022-11-13T06:11:42.417Z,98.60
2022-11-13T06:14:29.964Z,98.80
2022-11-13T06:17:17.213Z,98.50
2022-11-13T06:20:04.776Z,98.30
2022-11-13T06:22:53.655Z,98.20
2022-11-13T06:25:41.087Z,98.10
2022-11-13T06:28:28.601Z,98.10
2022-11-13T06:31:18.831Z,98.50
2022-11-13T06:34:24.401Z,98.10
2022-11-13T06:37:12.057Z,97.50
2022-11-13T06:40:00.997Z,98.10
2022-11-13T06:42:48.356Z,98.00
2022-11-13T06:45:35.547Z,97.70
2022-11-13T06:48:23.271Z,97.50
2022-11-13T06:51:15.569Z,97.50
2022-11-13T06:54:03.087Z,97.50
2022-11-13T06:56:52.257Z,97.70
2022-11-13T06:59:39.869Z,97.70
2022-11-13T07:02:27.171Z,97.50
2022-11-13T07:05:14.368Z,97.30
2022-11-13T07:08:01.463Z,97.10
2022-11-13T07:11:12.539Z,97.30
2022-11-13T07:14:18.767Z,97.10
2022-11-13T07:17:09.586Z,96.90
2022-11-13T07:19:57.660Z,96.90
2022-11-13T07:22:45.172Z,96.80
2022-11-13T07:25:32.723Z,96.90
2022-11-13T07:28:20.281Z,96.80
2022-11-13T07:31:10.855Z,96.40
2022-11-13T07:33:58.480Z,96.40
2022-11-13T07:36:45.821Z,95.70
2022-11-13T07:39:33.019Z,95.30
2022-11-13T07:42:37.302Z,94.60
2022-11-13T07:45:25.061Z,94.30
2022-11-13T07:48:31.392Z,93.90
2022-11-13T07:51:19.484Z,93.60
2022-11-13T07:54:07.420Z,93.10
2022-11-13T07:56:55.158Z,92.80
2022-11-13T07:59:42.851Z,92.50
2022-11-13T08:02:32.140Z,92.00
2022-11-13T08:05:21.220Z,91.70
2022-11-13T08:08:09.232Z,91.70
2022-11-13T08:10:56.851Z,91.30
2022-11-13T08:13:44.299Z,90.90
2022-11-13T08:16:31.664Z,90.70
2022-11-13T08:19:18.891Z,90.60
2022-11-13T08:22:25.063Z,90.40
2022-11-13T08:25:13.213Z,90.10
2022-11-13T08:28:00.666Z,90.40
2022-11-13T08:30:48.545Z,90.40
2022-11-13T08:33:35.975Z,89.30
2022-11-13T08:36:23.223Z,89.70
2022-11-13T08:39:12.153Z,90.30
2022-11-13T08:41:59.454Z,89.80
2022-11-13T08:44:47.054Z,89.20
2022-11-13T08:47:34.328Z,89.70
2022-11-13T08:50:21.706Z,88.60
2022-11-13T08:53:10.144Z,88.30
2022-11-13T08:56:19.367Z,88.10
2022-11-13T08:59:06.997Z,88.20
2022-11-13T09:01:58.546Z,87.90
2022-11-13T09:04:46.041Z,87.30
2022-11-13T09:07:33.284Z,88.70
2022-11-13T09:10:20.757Z,88.30
2022-11-13T09:13:11.850Z,86.40
2022-11-13T09:16:00.430Z,85.20
2022-11-13T09:18:50.411Z,85.60
2022-11-13T09:21:37.842Z,85.90
2022-11-13T09:24:25.206Z,82.80
2022-11-13T09:27:12.564Z,81.00
2022-11-13T09:30:19.118Z,79.80
2022-11-13T09:33:07.618Z,81.00
2022-11-13T09:35:54.873Z,81.30
2022-11-13T09:38:42.472Z,80.10
2022-11-13T09:41:33.092Z,80.90
2022-11-13T09:44:26.268Z,79.30
2022-11-13T09:47:20.214Z,76.60
2022-11-13T09:50:18.052Z,75.90
2022-11-13T09:53:06.253Z,76.20
2022-11-13T09:56:04.133Z,77.20
2022-11-13T09:58:58.446Z,76.40
2022-11-13T10:01:53.951Z,73.90
2022-11-13T10:04:57.977Z,75.70
2022-11-13T10:07:56.256Z,74.70
2022-11-13T10:10:55.599Z,74.80
2022-11-13T10:13:47.224Z,75.50
2022-11-13T10:16:40.664Z,74.00
2022-11-13T10:19:34.104Z,72.70
2022-11-13T10:22:33.884Z,72.30
2022-11-13T10:25:23.977Z,73.40
2022-11-13T10:28:43.702Z,73.90
2022-11-13T10:31:24.654Z,71.90
2022-11-13T10:34:14.015Z,72.20
2022-11-13T10:37:22.673Z,71.30
2022-11-13T10:40:11.686Z,69.00
2022-11-13T10:43:08.646Z,70.20
2022-11-13T10:46:00.545Z,69.20
2022-11-13T10:48:47.814Z,68.70
2022-11-13T10:51:36.539Z,67.10
2022-11-13T10:54:29.047Z,66.20
2022-11-13T10:57:33.422Z,67.60
2022-11-13T11:00:24.061Z,66.70
2022-11-13T11:03:15.243Z,66.70
2022-11-13T11:06:03.877Z,65.10
2022-11-13T11:08:51.358Z,65.80
2022-11-13T11:11:55.969Z,65.70
2022-11-13T11:15:02.860Z,66.60
2022-11-13T11:17:54.090Z,64.50
2022-11-13T11:21:05.668Z,64.20
2022-11-13T11:23:59.967Z,63.30
2022-11-13T11:26:53.246Z,62.80
2022-11-13T11:29:44.404Z,63.00
2022-11-13T11:32:38.014Z,63.00
2022-11-13T11:35:29.514Z,60.10
2022-11-13T11:38:22.722Z,61.70
2022-11-13T11:41:16.574Z,61.50
2022-11-13T11:44:13.372Z,60.30
2022-11-13T11:47:00.661Z,59.30
2022-11-13T11:49:49.490Z,59.50
2022-11-13T11:52:49.526Z,58.60
2022-11-13T11:56:02.842Z,59.10
2022-11-13T11:59:14.347Z,59.30
2022-11-13T12:02:52.714Z,58.80
2022-11-13T12:05:50.262Z,58.80
2022-11-13T12:08:46.735Z,58.50
2022-11-13T12:11:36.721Z,57.00
2022-11-13T12:14:33.770Z,57.50
2022-11-13T12:17:43.970Z,57.40
2022-11-13T12:20:39.530Z,57.20
2022-11-13T12:23:41.726Z,57.00
2022-11-13T12:26:32.728Z,56.20
2022-11-13T12:29:42.199Z,56.30
2022-11-13T12:32:46.519Z,55.90
2022-11-13T12:35:34.039Z,55.30
2022-11-13T12:38:33.969Z,56.70
2022-11-13T12:41:29.739Z,57.90
2022-11-13T12:44:24.589Z,56.70
2022-11-13T12:47:12.688Z,55.20
2022-11-13T12:50:05.248Z,55.70
2022-11-13T12:53:03.930Z,56.70
2022-11-13T12:56:00.581Z,56.00
2022-11-13T12:59:23.897Z,53.70
2022-11-13T13:02:23.968Z,54.00
2022-11-13T13:05:30.928Z,54.40
2022-11-13T13:09:06.013Z,54.90
2022-11-13T13:12:02.737Z,56.20
2022-11-13T13:15:03.645Z,56.80
2022-11-13T13:17:51.203Z,57.80
2022-11-13T13:20:40.302Z,59.20
2022-11-13T13:23:30.395Z,59.50
2022-11-13T13:26:21.460Z,59.70
2022-11-13T13:29:26.306Z,58.80
2022-11-13T13:32:23.076Z,58.10
2022-11-13T13:35:16.845Z,58.30
2022-11-13T13:38:12.727Z,57.60
2022-11-13T13:41:18.623Z,56.00
2022-11-13T13:44:25.870Z,55.70
2022-11-13T13:47:24.238Z,54.70
2022-11-13T13:50:17.857Z,55.10
2022-11-13T13:53:05.692Z,56.20
2022-11-13T13:55:56.780Z,57.10
2022-11-13T13:58:44.712Z,56.70
2022-11-13T14:01:35.692Z,55.60
2022-11-13T14:04:25.271Z,54.30
2022-11-13T14:07:27.588Z,54.30
2022-11-13T14:10:19.050Z,55.00
2022-11-13T14:13:06.830Z,54.50
2022-11-13T14:16:04.529Z,54.30
2022-11-13T14:19:03.903Z,53.30
2022-11-13T14:21:53.733Z,53.20
2022-11-13T14:24:49.634Z,53.20
2022-11-13T14:27:37.000Z,52.90
2022-11-13T14:30:26.716Z,52.90
2022-11-13T14:33:19.036Z,53.40
2022-11-13T14:36:08.667Z,54.00
2022-11-13T14:38:56.114Z,55.10
2022-11-13T14:41:49.537Z,56.30
2022-11-13T14:44:54.336Z,57.50
2022-11-13T14:47:41.996Z,58.30
2022-11-13T14:50:31.881Z,59.60
2022-11-13T14:53:30.992Z,60.00
2022-11-13T14:56:18.891Z,59.80
2022-11-13T14:59:14.369Z,60.60
2022-11-13T15:02:04.338Z,61.20
2022-11-13T15:04:51.808Z,62.00
2022-11-13T15:07:43.368Z,62.70
2022-11-13T15:10:33.460Z,63.80
2022-11-13T15:13:20.976Z,64.60
2022-11-13T15:16:08.816Z,64.70
2022-11-13T15:19:00.008Z,65.00
2022-11-13T15:22:20.435Z,65.00
2022-11-13T15:25:12.737Z,66.20
2022-11-13T15:28:02.187Z,67.20
2022-11-13T15:30:49.457Z,68.90
2022-11-13T15:33:37.089Z,70.50
2022-11-13T15:36:24.481Z,71.90
2022-11-13T15:39:29.567Z,72.20
2022-11-13T15:42:19.688Z,73.20
2022-11-13T15:45:14.337Z,74.30
2022-11-13T15:48:01.701Z,75.30
2022-11-13T15:50:48.937Z,75.80
2022-11-13T15:53:53.456Z,77.40
2022-11-13T15:56:41.228Z,77.80
2022-11-13T15:59:28.792Z,77.80
2022-11-13T16:02:17.648Z,77.70
2022-11-13T16:05:05.579Z,78.30
2022-11-13T16:07:53.732Z,79.00
2022-11-13T16:10:41.315Z,79.30
2022-11-13T16:13:28.673Z,79.20
2022-11-13T16:16:18.439Z,78.90
2022-11-13T16:19:13.321Z,79.60
2022-11-13T16:22:00.929Z,79.90
2022-11-13T16:24:48.368Z,80.10
2022-11-13T16:27:35.606Z,82.30
2022-11-13T16:30:25.538Z,81.80
2022-11-13T16:33:13.628Z,83.60
2022-11-13T16:36:20.106Z,84.50
2022-11-13T16:39:10.088Z,83.70
2022-11-13T16:41:57.498Z,82.80
2022-11-13T16:45:02.518Z,82.60
2022-11-13T16:47:51.226Z,82.60
2022-11-13T16:50:39.856Z,81.20
2022-11-13T16:53:29.106Z,80.80
2022-11-13T16:56:18.581Z,80.40
2022-11-13T16:59:06.131Z,80.30
2022-11-13T17:01:56.579Z,82.00
2022-11-13T17:04:44.749Z,82.40
2022-11-13T17:07:34.897Z,84.10
2022-11-13T17:10:40.847Z,84.30
2022-11-13T17:13:28.485Z,85.80
2022-11-13T17:16:16.157Z,84.80
2022-11-13T17:19:04.048Z,86.10
2022-11-13T17:21:51.197Z,86.30
2022-11-13T17:24:38.588Z,85.50
2022-11-13T17:27:27.367Z,86.70
2022-11-13T17:30:15.689Z,86.60
2022-11-13T17:33:03.077Z,85.40
2022-11-13T17:35:55.955Z,86.10
2022-11-13T17:38:43.470Z,85.50
2022-11-13T17:41:30.829Z,85.60
2022-11-13T17:44:19.788Z,85.90
2022-11-13T17:47:07.401Z,85.30
2022-11-13T17:50:02.446Z,85.40
2022-11-13T17:52:54.539Z,85.10
2022-11-13T17:55:41.721Z,85.30
2022-11-13T17:58:29.739Z,86.00
2022-11-13T18:01:20.884Z,86.10
2022-11-13T18:04:10.512Z,86.20
2022-11-13T18:07:14.954Z,86.80
2022-11-13T18:10:02.443Z,87.70
2022-11-13T18:12:49.585Z,89.10
2022-11-13T18:15:37.762Z,89.80
2022-11-13T18:18:27.039Z,90.30
2022-11-13T18:21:25.138Z,89.90
2022-11-13T18:24:16.438Z,90.10
2022-11-13T18:27:07.152Z,90.80
2022-11-13T18:29:54.721Z,90.90
2022-11-13T18:32:41.954Z,91.10
2022-11-13T18:35:30.633Z,91.00
2022-11-13T18:38:18.629Z,91.40
2022-11-13T18:41:07.988Z,91.70
2022-11-13T18:43:58.930Z,91.80
2022-11-13T18:46:46.453Z,92.40
2022-11-13T18:49:50.948Z,92.50
2022-11-13T18:52:42.564Z,92.40
2022-11-13T18:55:30.089Z,92.10
2022-11-13T18:58:17.500Z,91.90
2022-11-13T19:01:10.606Z,91.80
2022-11-13T19:07:13.318Z,91.90
2022-11-13T19:10:04.639Z,92.00
2022-11-13T19:12:52.037Z,92.20
2022-11-13T19:15:40.151Z,92.20
2022-11-13T19:18:27.708Z,92.20
2022-11-13T19:21:21.140Z,92.30
2022-11-13T19:24:09.089Z,92.50
2022-11-13T19:26:58.173Z,92.40
2022-11-13T19:29:45.692Z,92.50
2022-11-13T19:32:33.221Z,92.60
2022-11-13T19:35:20.410Z,92.70
2022-11-13T19:38:08.653Z,92.50
2022-11-13T19:40:55.869Z,93.10
2022-11-13T19:43:45.114Z,94.10
2022-11-13T19:46:34.312Z,95.50
2022-11-13T19:49:21.776Z,96.50
2022-11-13T19:52:09.135Z,97.40
2022-11-13T19:54:56.894Z,98.10
2022-11-13T19:58:01.729Z,98.40
2022-11-13T20:00:50.746Z,98.60
2022-11-13T20:03:38.436Z,99.10
2022-11-13T20:06:26.016Z,99.80
2022-11-13T20:09:13.512Z,99.90
2022-11-13T20:12:01.065Z,99.90
2022-11-13T20:14:48.505Z,99.90
2022-11-13T20:17:37.195Z,99.90
2022-11-13T20:20:24.802Z,99.90
2022-11-13T20:23:12.064Z,99.90
2022-11-13T20:26:00.768Z,99.90
2022-11-13T20:28:47.886Z,99.90
2022-11-13T20:31:35.214Z,99.90
2022-11-13T20:34:24.327Z,99.90
2022-11-13T20:37:11.834Z,99.90
2022-11-13T20:39:59.022Z,99.90
2022-11-13T20:42:46.264Z,99.90
2022-11-13T20:45:33.825Z,99.90
2022-11-13T20:48:21.061Z,99.90
2022-11-13T20:51:13.813Z,99.90
2022-11-13T20:54:01.405Z,99.90
2022-11-13T20:56:48.655Z,99.90
2022-11-13T20:59:36.026Z,99.90
2022-11-13T21:02:23.691Z,99.90
2022-11-13T21:05:11.285Z,99.90
2022-11-13T21:08:00.228Z,99.90
2022-11-13T21:10:47.889Z,99.90
2022-11-13T21:13:35.529Z,99.90
2022-11-13T21:16:23.356Z,99.90
2022-11-13T21:19:11.345Z,99.90
2022-11-13T21:21:58.925Z,99.90
2022-11-13T21:24:47.565Z,99.90
2022-11-13T21:27:35.113Z,99.90
2022-11-13T21:30:22.608Z,99.90
2022-11-13T21:33:10.219Z,99.90
2022-11-13T21:36:14.698Z,99.90
2022-11-13T21:39:19.542Z,99.90
2022-11-13T21:42:08.652Z,99.90
2022-11-13T21:44:56.285Z,99.90
2022-11-13T21:47:44.374Z,99.90
2022-11-13T21:50:31.834Z,99.90
2022-11-13T21:53:18.999Z,99.90
2022-11-13T21:56:11.249Z,99.90
2022-11-13T21:59:03.750Z,99.90
2022-11-13T22:01:51.960Z,99.90
2022-11-13T22:04:56.330Z,99.90
2022-11-13T22:07:43.985Z,99.90
2022-11-13T22:10:31.252Z,99.90
2022-11-13T22:13:18.699Z,99.90
2022-11-13T22:16:08.927Z,99.90
2022-11-13T22:18:58.170Z,99.90
2022-11-13T22:21:46.367Z,99.90
2022-11-13T22:24:50.909Z,99.90
2022-11-13T22:27:38.547Z,99.90
2022-11-13T22:30:25.747Z,99.90
2022-11-13T22:33:14.396Z,99.90
2022-11-13T22:36:03.500Z,99.90
2022-11-13T22:38:51.247Z,99.90
2022-11-13T22:41:38.598Z,99.90
2022-11-13T22:44:31.683Z,99.90
2022-11-13T22:47:37.878Z,99.90
2022-11-13T22:50:27.147Z,99.90
2022-11-13T22:53:15.656Z,99.90
2022-11-13T22:56:04.884Z,99.90
2022-11-13T22:58:53.643Z,99.90
2022-11-13T23:01:43.020Z,99.90
2022-11-13T23:04:30.426Z,99.90
2022-11-13T23:07:36.759Z,99.90
2022-11-13T23:10:25.854Z,99.90
2022-11-13T23:13:14.238Z,99.90
2022-11-13T23:16:01.667Z,99.90
2022-11-13T23:18:49.199Z,99.90
2022-11-13T23:21:37.540Z,99.90
2022-11-13T23:24:26.663Z,99.90
2022-11-13T23:27:14.204Z,99.90
2022-11-13T23:30:01.400Z,99.90
2022-11-13T23:32:48.644Z,99.90
2022-11-13T23:35:35.927Z,99.90
2022-11-13T23:38:23.371Z,99.90
2022-11-13T23:41:14.051Z,99.90
2022-11-13T23:44:08.646Z,99.90
2022-11-13T23:46:56.602Z,99.90
2022-11-13T23:49:44.601Z,99.90
2022-11-13T23:52:32.247Z,99.90
2022-11-13T23:55:21.357Z,99.90
2022-11-13T23:58:14.000Z,99.90
